Accueil
METAR-TAF:

METAR-TAF

Aéroports :

Aéroport international de Gibraltar

Gibraltar, Gibraltar

latitude: 36-09N, longitude: 005-21W, altitude: 5 m

Observation

Le bulletin a été fait il y a 1 heure et 21 minutes, à 23:50 UTC
Vent 10 kt de nord-est
Température 20°C
Humidité 88%
Pression 1019 hPa
Visibilité: 7000 m

METAR: LXGB 212350Z AUTO 05010KT 7000 // SCT016/// SCT024/// 20/18 Q1019

Heure: 03:11 (01:11 UTC)

Prévision

Le bulletin a été fait il y a 8 heures et 42 minutes, à 16:29 UTC
Prévision valable du 21 à 18 UTC au 21 à 22 UTC
Vent 10 kt de est/nord-est
Visibilité 10 km ou plus
Nuages épars à une hauteur de 3000 ft
Probabilité 40% :
Temporairement
du 21 à 18 UTC au 21 à 22 UTC
Visibilité: 4000 m
Nuages épars à une hauteur de 1800 ft, Cumulus congestus.
averses de pluie

TAF: LXGB 211629Z 2118/2122 07010KT 9999 SCT030 PROB40 TEMPO 2118/2122 4000 SHRA SCT018TCU

Observations et prévisions météorologiques de plus de 4000 aéroports (messages METAR et TAF).

Les stations disponibles sont représentées par des disques jaunes et rouges sur la carte.

Passer la souris dessus pour voir le nom de la station.

Cliquer dessus pour voir les observations et prévisions météorologiques.

Pour changer de carte: cliquez sur les boutons verts avec une croix noire pour zoomer, sur le bouton vert avec un tiret pour effectuer un zoom arrière, ou sur les flèches vertes pour les cartes adjacentes.


METAR-TAF: